• Join FlightAware (Why Join?)
  • Login
  • US Flag 
03:12AM EDT


 

Airport Tracker/Info


-or-


 

Live Flight TrackerFlight Track Log ✈ N4118B ✈ 04-May-2014 ✈ KPMP - KPMP

Flight Track Log - Related Links

Times and Time Zones

All times are in EDT time to prevent confusion due to time zone crossing. See the N4118B flight status page for this flight to view local times or setup timezone preferences in your user account.

Time Position Orientation Groundspeed Altitude Reporting Facility
EDT Latitude Longitude Course Direction KTS MPH feet Rate Location/Type
07:13AM 26.1578 -80.3450 192° South 84 97 9,700  Level Miami Center
07:14AM 26.1328 -80.3511 192° South 119 137 9,700  Level Miami Center
07:15AM 26.1336 -80.3142 89° East 152 175 9,700  Level Miami Center
07:16AM 26.1606 -80.3150 358° North 85 98 9,700  Level Miami Center
07:17AM 26.1622 -80.3403 274° West 80 92 9,700 -60 Level Miami Center
07:18AM 26.1369 -80.3511 201° Southwest 113 130 9,600  Descending Miami Center
07:19AM 26.1231 -80.3183 115° Southeast 148 170 9,700  Climbing Miami Center
07:20AM 26.1544 -80.3078 17° North 104 120 9,600 -60 Descending Miami Center
07:21AM 26.1519 -80.3356 264° West 84 97 9,600  Level Miami Center
07:22AM 26.1306 -80.3511 213° Southwest 96 110 9,600  Level Miami Center
07:23AM 26.1253 -80.3117 98° East 146 168 9,600  Level Miami Center
07:24AM 26.1461 -80.3097 North 101 116 9,600  Level Miami Center
07:25AM 26.1517 -80.3378 282° West 79 91 9,600  Level Miami Center
07:26AM 26.1306 -80.3533 213° Southwest 93 107 9,600  Level Miami Center
07:27AM 26.1144 -80.3275 125° Southeast 155 178 9,600  Level Miami Center
07:28AM 26.1417 -80.3189 16° North 100 115 9,600  Level Miami Center
07:29AM 26.1369 -80.3444 258° West 84 97 9,600  Level Miami Center
07:30AM 26.1139 -80.3461 184° South 119 137 9,600 -60 Level Miami Center
07:31AM 26.1231 -80.3114 74° East 130 150 9,500 -60 Descending Miami Center
07:32AM 26.1478 -80.3308 325° Northwest 90 104 9,500  Level Miami Center
07:33AM 26.1347 -80.3467 227° Southwest 85 98 9,600  Climbing Miami Center
07:34AM 26.1139 -80.3483 184° South 100 115 9,600 -60 Level Miami Center
07:35AM 26.1314 -80.3211 54° Northeast 108 124 9,500  Descending Miami Center
07:36AM 26.1433 -80.3397 306° West 74 85 9,600  Climbing Miami Center
07:37AM 26.1181 -80.3506 201° Southwest 103 119 9,600  Level Miami Center
07:38AM 26.1167 -80.3206 93° East 148 170 9,600  Level Miami Center
07:39AM 26.1436 -80.3306 342° North 92 106 9,600  Level Miami Center
07:40AM 26.1347 -80.3511 244° Southwest 78 90 9,600  Level Miami Center
07:41AM 26.1219 -80.3669 228° Southwest 87 100 9,600  Level Miami Center
07:42AM 26.1203 -80.3392 94° East 149 171 9,600  Level Miami Center
07:43AM 26.1306 -80.3533 309° West 70 81 9,600  Level Miami Center
07:44AM 26.1197 -80.3717 237° Southwest 101 116 9,600  Level Miami Center
07:45AM 26.1264 -80.3486 72° East 129 148 9,600  Level Miami Center
07:46AM 26.1322 -80.3719 286° West 75 86 9,600  Level Miami Center
07:47AM 26.1200 -80.3578 134° Southeast 152 175 9,600  Level Miami Center
07:48AM 26.1322 -80.3742 310° West 70 81 9,600  Level Miami Center
07:49AM 26.1153 -80.3761 186° South 130 150 9,600  Level Miami Center
07:50AM 26.1322 -80.3742 North 73 84 9,600  Level Miami Center
07:51AM 26.1233 -80.3903 238° Southwest 90 104 9,600 -60 Level Miami Center
07:52AM 26.1303 -80.3672 71° East 136 157 9,500  Descending Miami Center
07:53AM 26.1358 -80.3883 286° West 69 79 9,600  Climbing Miami Center
07:54AM 26.1214 -80.3831 162° South 142 163 9,600  Level Miami Center
07:55AM 26.1381 -80.3861 351° North 70 81 9,600  Level Miami Center
07:56AM 26.1253 -80.3994 223° Southwest 96 110 9,700  Climbing Miami Center
07:57AM 26.1383 -80.3767 57° Northeast 117 135 9,600  Descending Miami Center
07:58AM 26.1397 -80.4022 273° West 84 97 9,700  Climbing Miami Center
07:59AM 26.1208 -80.4133 208° Southwest 120 138 9,700 -60 Level Miami Center
08:00AM 26.1403 -80.3814 56° Northeast 130 150 9,600 -60 Descending Miami Center
08:01AM 26.1417 -80.4047 274° West 83 96 9,600 -60 Level Miami Center
08:03AM 26.1231 -80.4017 172° South 156 180 9,500  Descending Miami Center
08:04AM 26.1442 -80.3956 15° North 78 90 9,600  Climbing Miami Center
08:05AM 26.1372 -80.4161 249° West 80 92 9,600  Level Miami Center
08:06AM 26.1147 -80.3969 143° Southeast 131 151 9,600 -60 Level Miami Center
08:07AM 26.1294 -80.3972 359° North 68 78 9,500  Descending Miami Center
08:07AM 26.1186 -80.4086 223° Southwest 79 91 9,600  Climbing Miami Center
08:08AM 26.1153 -80.3806 98° East 149 171 9,500  Descending Miami Center
08:10AM 26.1253 -80.4019 298° West 65 75 9,700  Climbing Miami Center
08:11AM 26.1064 -80.3989 172° South 129 148 9,600 -60 Descending Miami Center
08:12AM 26.1214 -80.3878 34° Northeast 95 109 9,600  Level Miami Center
08:13AM 26.1083 -80.4014 223° Southwest 91 105 9,700  Climbing Miami Center
08:14AM 26.1047 -80.3781 100° East 152 175 9,600 -60 Descending Miami Center
08:15AM 26.1233 -80.3925 325° Northwest 75 86 9,600  Level Miami Center
08:16AM 26.1106 -80.4061 224° Southwest 102 117 9,600  Level Miami Center
08:17AM 26.0922 -80.3800 128° Southeast 149 171 9,600  Level Miami Center
08:18AM 26.1278 -80.3742 North 109 125 9,600  Level Miami Center
08:19AM 26.1378 -80.3953 298° West 79 91 9,600  Level Miami Center
08:20AM 26.1231 -80.4064 214° Southwest 109 125 9,600 -60 Level Miami Center
08:21AM 26.0919 -80.3917 157° South 123 142 9,500 -60 Descending Miami Center
08:22AM 26.1133 -80.3714 40° Northeast 118 136 9,500  Level Miami Center
08:23AM 26.1253 -80.3950 299° West 78 90 9,600  Climbing Miami Center
08:24AM 26.1022 -80.4033 198° South 87 100 9,600 -60 Level Miami Center
08:25AM 26.0839 -80.3753 126° Southeast 151 174 9,500  Descending Miami Center
08:26AM 26.1086 -80.3897 332° Northwest 83 96 9,600  Climbing Miami Center
08:27AM 26.0978 -80.4056 233° Southwest 81 93 9,600 -60 Level Miami Center
08:28AM 26.0986 -80.3803 88° East 131 151 9,500 -60 Descending Miami Center
08:29AM 26.1106 -80.3967 309° West 69 79 9,500  Level Miami Center
08:30AM 26.0917 -80.4078 208° Southwest 95 109 9,600  Climbing Miami Center
08:31AM 26.1089 -80.3875 47° Northeast 110 127 9,600  Level Miami Center
08:32AM 26.1125 -80.4083 281° West 75 86 9,600  Level Miami Center
08:33AM 26.0939 -80.4008 160° South 145 167 9,600  Level Miami Center
08:34AM 26.1211 -80.3994 North 92 106 9,600  Level Miami Center
08:35AM 26.1039 -80.4150 219° Southwest 92 106 9,600  Level Miami Center
08:36AM 26.1086 -80.3897 78° East 136 157 9,600  Level Miami Center
08:37AM 26.1186 -80.4086 301° West 81 93 9,600  Level Miami Center
08:38AM 26.1000 -80.4081 178° South 127 146 9,600  Level Miami Center
08:39AM 26.1233 -80.3947 27° Northeast 119 137 9,600  Level Miami Center
08:40AM 26.1206 -80.4156 262° West 84 97 9,600  Level Miami Center
08:41AM 26.1064 -80.3989 133° Southeast 144 166 9,600  Level Miami Center
08:42AM 26.1258 -80.3786 43° Northeast 111 128 9,600  Level Miami Center
08:43AM 26.1231 -80.4017 262° West 79 91 9,600  Level Miami Center
08:44AM 26.0983 -80.3917 160° South 125 144 9,600  Level Miami Center
08:45AM 26.1172 -80.3808 27° Northeast 87 100 9,600  Level Miami Center
08:46AM 26.1314 -80.4019 307° West 91 105 9,600  Level Miami Center
08:47AM 26.1081 -80.4175 211° Southwest 97 112 9,700  Climbing Miami Center
08:48AM 26.0983 -80.3942 115° Southeast 151 174 9,600 -60 Descending Miami Center
08:49AM 26.1233 -80.3925 North 83 96 9,600  Level Miami Center
08:50AM 26.1353 -80.4161 299° West 94 108 9,600  Level Miami Center
08:51AM 26.1161 -80.4247 202° Southwest 100 115 9,600  Level Miami Center
08:52AM 26.1150 -80.3944 92° East 152 175 9,600  Level Miami Center
08:53AM 26.1397 -80.4092 332° Northwest 100 115 9,600  Level Miami Center
08:54AM 26.1308 -80.4297 244° Southwest 84 97 9,600  Level Miami Center
08:55AM 26.1042 -80.4058 141° Southeast 126 145 9,600  Level Miami Center
08:56AM 26.1069 -80.3781 84° East 137 158 9,600  Level Miami Center
08:57AM 26.1358 -80.3975 329° Northwest 100 115 9,600  Level Miami Center
08:58AM 26.1478 -80.4211 299° West 95 109 9,600 -60 Level Miami Center
08:59AM 26.1347 -80.4367 227° Southwest 109 125 9,500  Descending Miami Center
09:00AM 26.1253 -80.4019 107° East 154 177 9,600  Climbing Miami Center
09:01AM 26.1478 -80.4142 334° Northwest 87 100 9,600  Level Miami Center
09:02AM 26.1392 -80.4322 242° Southwest 92 106 9,600  Level Miami Center
09:03AM 26.1186 -80.4156 144° Southeast 146 168 9,600  Level Miami Center
09:04AM 26.1417 -80.4069 19° North 94 108 9,600  Level Miami Center
09:05AM 26.1475 -80.4325 284° West 83 96 9,600  Level Miami Center
09:06AM 26.1244 -80.4364 189° South 107 123 9,600 -60 Level Miami Center
09:07AM 26.1353 -80.4114 64° Northeast 128 147 9,500  Descending Miami Center
09:08AM 26.1453 -80.4347 296° West 81 93 9,600  Climbing Miami Center
09:10AM 26.1203 -80.4342 179° South 130 150 9,600  Level Miami Center
09:10AM 26.1375 -80.4136 47° Northeast 126 145 9,600  Level Miami Center
09:12AM 26.1389 -80.4392 273° West 91 105 9,600  Level Miami Center
09:13AM 26.1139 -80.4408 183° South 116 133 9,600  Level Miami Center
09:14AM 26.1331 -80.4206 44° Northeast 117 135 9,600  Level Miami Center
09:15AM 26.1408 -80.4439 290° West 89 102 9,600  Level Miami Center
09:15AM 26.1197 -80.4503 195° South 123 142 9,600  Level Miami Center
09:16AM 26.1144 -80.4153 100° East 153 176 9,600  Level Miami Center
09:17AM 26.1392 -80.4278 336° Northwest 89 102 9,600  Level Miami Center
09:19AM 26.1344 -80.4506 257° West 101 116 9,600  Level Miami Center
09:20AM 26.1228 -80.4133 109° East 138 159 9,600 -60 Level Miami Center
09:21AM 26.1500 -80.4119 North 83 96 9,500  Descending Miami Center
09:22AM 26.1578 -80.4397 287° West 85 98 9,600  Climbing Miami Center
09:23AM 26.1386 -80.4508 207° Southwest 118 136 9,600  Level Miami Center
09:24AM 26.1619 -80.4306 38° Northeast 121 139 9,600 -300 Level Miami Center
09:25AM 26.1956 -80.4317 358° North 126 145 9,000 -780 Descending Miami Center
09:26AM 26.2331 -80.4258 North 137 158 8,100 -900 Descending Miami Center
09:27AM 26.2689 -80.4222 North 139 160 7,300 -840 Descending Miami Center
09:28AM 26.2886 -80.3811 62° Northeast 150 173 6,500 -840 Descending Miami Center
09:29AM 26.3022 -80.3400 70° East 142 163 5,600 -960 Descending Miami Center
09:30AM 26.3197 -80.2964 66° East 137 158 4,500 -960 Descending Miami Center
09:31AM 26.3147 -80.2500 97° East 140 161 3,600 -900 Descending Miami Center
09:32AM 26.3050 -80.2103 105° East 139 160 2,800 -780 Descending Miami Center
09:33AM 26.2872 -80.1750 119° Southeast 131 151 2,100 -720 Descending Miami Center
09:34AM 26.2628 -80.1464 134° Southeast 129 148 1,400 -720 Descending Miami Center
09:35AM 26.2381 -80.1272 145° Southeast 124 143 800 -600 Descending Miami Center
09:36AM 26.2261 -80.1039 120° Southeast 99 114 400 -420 Descending Miami Center
09:38AM 26.2312 -80.1012 26° Northeast  Level FlightAware Approximate